Paris, France
Current Conditions -  °F | °C
As of 4:00 AM on Wednesday 22 Oct 2014 (Local Time) from LFPB Reporting Station
Clear Clear  
Wind Chill: 41°   Ceiling: Unl
Heat Index: 46°   Visibility: 6mi
Dew Point: 39°   Wind: 10mph
Humidity: 76%   Direction: 280°W
Pressure: 30.21"   Gusts: NA
Location:  48.86°N, 2.35°E
Report Text: LFPB 220200Z AUTO 28009KT 9999 NSC 08/04 Q1023
Loading
Personal Weather Stations






























Interactive Weather Map New forecast layout! Learn more

10-Day Weather Forecast

Advertisements
Track Severe Weather on mobile